Frederiksberg, Denmark
Current Conditions -  °F | °C
As of 6:50 AM on Sunday 21 Dec 2014 (Local Time) from EKCH Reporting Station
Few Clouds Few Clouds  
Wind Chill: 32°   Ceiling: Unl
Heat Index: 39°   Visibility: 6mi
Dew Point: 36°   Wind: 13mph
Humidity: 87%   Direction: 280°W
Pressure: 29.91"   Gusts: NA
Location:  55.68°N, 12.53°E
Report Text: EKCH 210550Z 28011KT 9999 FEW024 04/02 Q1013 R04L/710160R04R/710153 R12/710163 NOSIG
Loading
Personal Weather Stations






























Interactive Weather Map New forecast layout! Learn more

10-Day Weather Forecast

Advertisements
Track Severe Weather on mobile